Time;durP1;ratioP1;P1;durP2;ratioP2;P2;SDS_P1;SDS_P2;PMS_P1;PMS_P2;Temp;Humidity;BMP_temperature;BMP_pressure;BME280_temperature;BME280_humidity;BME280_pressure;Samples;Min_cycle;Max_cycle;Signal;HPM_P1;HPM_P2
2020/10/25 00:00:58;;;;;;;4.45;4.05;;;;;;;6.13;100;95064.83;;;;
2020/10/25 00:01:59;;;;;;;4.45;4.05;;;;;;;6.13;100;95064.83;;;;
2020/10/25 00:02:59;;;;;;;4.45;4.05;;;;;;;6.13;100;95064.83;;;;
2020/10/25 00:04:00;;;;;;;4.45;4.05;;;;;;;6.13;100;95064.83;;;;
2020/10/25 00:05:01;;;;;;;4.45;4.05;;;;;;;6.13;100;95064.83;;;;
2020/10/25 00:06:02;;;;;;;4.45;4.05;;;;;;;6.13;100;95064.83;;;;
2020/10/25 00:07:05;;;;;;;4.45;4.05;;;;;;;6.13;100;95064.83;;;;
2020/10/25 00:08:06;;;;;;;4.45;4.05;;;;;;;6.13;100;95064.83;;;;
2020/10/25 00:09:06;;;;;;;4.45;4.05;;;;;;;6.13;100;95064.83;;;;
2020/10/25 00:10:07;;;;;;;5.15;3.85;;;;;;;6.09;100;95072.06;;;;
2020/10/25 00:11:14;;;;;;;5.15;3.85;;;;;;;6.09;100;95072.06;;;;
2020/10/25 00:12:14;;;;;;;5.15;3.85;;;;;;;6.09;100;95072.06;;;;
2020/10/25 00:13:15;;;;;;;5.15;3.85;;;;;;;6.09;100;95072.06;;;;
2020/10/25 00:14:16;;;;;;;5.15;3.85;;;;;;;6.09;100;95072.06;;;;
2020/10/25 00:15:16;;;;;;;5.15;3.85;;;;;;;6.09;100;95072.06;;;;
2020/10/25 00:16:20;;;;;;;5.15;3.85;;;;;;;6.09;100;95072.06;;;;
2020/10/25 00:17:20;;;;;;;5.15;3.85;;;;;;;6.09;100;95072.06;;;;
2020/10/25 00:18:21;;;;;;;5.15;3.85;;;;;;;6.09;100;95072.06;;;;
2020/10/25 00:19:21;;;;;;;5.15;3.85;;;;;;;6.09;100;95072.06;;;;
2020/10/25 00:20:22;;;;;;;3.85;3.45;;;;;;;6.03;100;95057.23;;;;
2020/10/25 00:21:23;;;;;;;3.85;3.45;;;;;;;6.03;100;95057.23;;;;
2020/10/25 00:22:51;;;;;;;3.85;3.45;;;;;;;6.03;100;95057.23;;;;
2020/10/25 00:23:52;;;;;;;3.85;3.45;;;;;;;6.03;100;95057.23;;;;
2020/10/25 00:24:52;;;;;;;3.85;3.45;;;;;;;6.03;100;95057.23;;;;
2020/10/25 00:25:53;;;;;;;3.85;3.45;;;;;;;6.03;100;95057.23;;;;
2020/10/25 00:26:53;;;;;;;3.85;3.45;;;;;;;6.03;100;95057.23;;;;
2020/10/25 00:27:54;;;;;;;3.85;3.45;;;;;;;6.03;100;95057.23;;;;
2020/10/25 00:28:57;;;;;;;3.85;3.45;;;;;;;6.03;100;95057.23;;;;
2020/10/25 00:29:58;;;;;;;3.85;3.45;;;;;;;6.03;100;95057.23;;;;
2020/10/25 00:30:58;;;;;;;4.050001;3.65;;;;;;;6.08;100;95037.86;;;;
2020/10/25 00:31:59;;;;;;;4.050001;3.65;;;;;;;6.08;100;95037.86;;;;
2020/10/25 00:32:59;;;;;;;4.050001;3.65;;;;;;;6.08;100;95037.86;;;;
2020/10/25 00:34:04;;;;;;;4.050001;3.65;;;;;;;6.08;100;95037.86;;;;
2020/10/25 00:35:04;;;;;;;4.050001;3.65;;;;;;;6.08;100;95037.86;;;;
2020/10/25 00:36:05;;;;;;;4.050001;3.65;;;;;;;6.08;100;95037.86;;;;
2020/10/25 00:37:06;;;;;;;4.050001;3.65;;;;;;;6.08;100;95037.86;;;;
2020/10/25 00:38:06;;;;;;;4.050001;3.65;;;;;;;6.08;100;95037.86;;;;
2020/10/25 00:39:09;;;;;;;4.050001;3.65;;;;;;;6.08;100;95037.86;;;;
2020/10/25 00:40:10;;;;;;;4.050001;3.65;;;;;;;6.08;100;95037.86;;;;
2020/10/25 00:41:15;;;;;;;4.25;3.1;;;;;;;6.01;100;95015.09;;;;
2020/10/25 00:42:15;;;;;;;4.25;3.1;;;;;;;6.01;100;95015.09;;;;
2020/10/25 00:43:16;;;;;;;4.25;3.1;;;;;;;6.01;100;95015.09;;;;
2020/10/25 00:44:20;;;;;;;4.25;3.1;;;;;;;6.01;100;95015.09;;;;
2020/10/25 00:45:20;;;;;;;4.25;3.1;;;;;;;6.01;100;95015.09;;;;
2020/10/25 00:46:24;;;;;;;4.25;3.1;;;;;;;6.01;100;95015.09;;;;
2020/10/25 00:47:26;;;;;;;4.25;3.1;;;;;;;6.01;100;95015.09;;;;
2020/10/25 00:48:26;;;;;;;4.25;3.1;;;;;;;6.01;100;95015.09;;;;
2020/10/25 00:49:31;;;;;;;4.25;3.1;;;;;;;6.01;100;95015.09;;;;
2020/10/25 00:50:32;;;;;;;4.25;3.1;;;;;;;6.01;100;95015.09;;;;
2020/10/25 00:51:32;;;;;;;4.25;3.1;;;;;;;6.01;100;95015.09;;;;
2020/10/25 00:52:34;;;;;;;4.099999;3.45;;;;;;;5.97;100;95012.56;;;;
2020/10/25 00:53:34;;;;;;;4.099999;3.45;;;;;;;5.97;100;95012.56;;;;
2020/10/25 00:54:38;;;;;;;4.099999;3.45;;;;;;;5.97;100;95012.56;;;;
2020/10/25 00:55:38;;;;;;;4.099999;3.45;;;;;;;5.97;100;95012.56;;;;
2020/10/25 00:56:39;;;;;;;4.099999;3.45;;;;;;;5.97;100;95012.56;;;;
2020/10/25 00:57:50;;;;;;;4.099999;3.45;;;;;;;5.97;100;95012.56;;;;
2020/10/25 00:58:53;;;;;;;4.099999;3.45;;;;;;;5.97;100;95012.56;;;;
2020/10/25 01:00:03;;;;;;;4.099999;3.45;;;;;;;5.97;100;95012.56;;;;
2020/10/25 01:01:05;;;;;;;4.099999;3.45;;;;;;;5.97;100;95012.56;;;;
2020/10/25 01:02:10;;;;;;;4.099999;3.45;;;;;;;5.97;100;95012.56;;;;
2020/10/25 01:03:16;;;;;;;3.1;2.75;;;;;;;5.9;100;94997.97;;;;
2020/10/25 01:04:18;;;;;;;3.1;2.75;;;;;;;5.9;100;94997.97;;;;
2020/10/25 01:05:21;;;;;;;3.1;2.75;;;;;;;5.9;100;94997.97;;;;
2020/10/25 01:06:23;;;;;;;3.1;2.75;;;;;;;5.9;100;94997.97;;;;
2020/10/25 01:07:23;;;;;;;3.1;2.75;;;;;;;5.9;100;94997.97;;;;
2020/10/25 01:08:26;;;;;;;3.1;2.75;;;;;;;5.9;100;94997.97;;;;
2020/10/25 01:09:27;;;;;;;3.1;2.75;;;;;;;5.9;100;94997.97;;;;
2020/10/25 01:10:27;;;;;;;3.1;2.75;;;;;;;5.9;100;94997.97;;;;
2020/10/25 01:11:28;;;;;;;3.1;2.75;;;;;;;5.9;100;94997.97;;;;
2020/10/25 01:12:28;;;;;;;3.1;2.75;;;;;;;5.9;100;94997.97;;;;
2020/10/25 01:13:29;;;;;;;5.450001;2.7;;;;;;;5.79;100;94991.36;;;;
2020/10/25 01:14:29;;;;;;;5.450001;2.7;;;;;;;5.79;100;94991.36;;;;
2020/10/25 01:15:33;;;;;;;5.450001;2.7;;;;;;;5.79;100;94991.36;;;;
2020/10/25 01:16:35;;;;;;;5.450001;2.7;;;;;;;5.79;100;94991.36;;;;
2020/10/25 01:17:35;;;;;;;5.450001;2.7;;;;;;;5.79;100;94991.36;;;;
2020/10/25 01:18:36;;;;;;;5.450001;2.7;;;;;;;5.79;100;94991.36;;;;
2020/10/25 01:19:37;;;;;;;5.450001;2.7;;;;;;;5.79;100;94991.36;;;;
2020/10/25 01:20:39;;;;;;;5.450001;2.7;;;;;;;5.79;100;94991.36;;;;
2020/10/25 01:21:39;;;;;;;5.450001;2.7;;;;;;;5.79;100;94991.36;;;;
2020/10/25 01:22:40;;;;;;;5.450001;2.7;;;;;;;5.79;100;94991.36;;;;
2020/10/25 01:23:40;;;;;;;5.450001;2.7;;;;;;;5.79;100;94991.36;;;;
2020/10/25 01:24:41;;;;;;;2.8;2.4;;;;;;;5.56;100;94977.26;;;;
2020/10/25 01:25:41;;;;;;;2.8;2.4;;;;;;;5.56;100;94977.26;;;;
2020/10/25 01:26:42;;;;;;;2.8;2.4;;;;;;;5.56;100;94977.26;;;;
2020/10/25 01:27:45;;;;;;;2.8;2.4;;;;;;;5.56;100;94977.26;;;;
2020/10/25 01:28:45;;;;;;;2.8;2.4;;;;;;;5.56;100;94977.26;;;;
2020/10/25 01:29:46;;;;;;;2.8;2.4;;;;;;;5.56;100;94977.26;;;;
2020/10/25 01:30:47;;;;;;;2.8;2.4;;;;;;;5.56;100;94977.26;;;;
2020/10/25 01:31:47;;;;;;;2.8;2.4;;;;;;;5.56;100;94977.26;;;;
2020/10/25 01:32:50;;;;;;;2.8;2.4;;;;;;;5.56;100;94977.26;;;;
2020/10/25 01:33:52;;;;;;;2.8;2.4;;;;;;;5.56;100;94977.26;;;;
2020/10/25 01:34:52;;;;;;;4.35;2.55;;;;;;;5.42;100;94946.23;;;;
2020/10/25 01:35:53;;;;;;;4.35;2.55;;;;;;;5.42;100;94946.23;;;;
2020/10/25 01:36:54;;;;;;;4.35;2.55;;;;;;;5.42;100;94946.23;;;;
2020/10/25 01:37:54;;;;;;;4.35;2.55;;;;;;;5.42;100;94946.23;;;;
2020/10/25 01:38:55;;;;;;;4.35;2.55;;;;;;;5.42;100;94946.23;;;;
2020/10/25 01:39:55;;;;;;;4.35;2.55;;;;;;;5.42;100;94946.23;;;;
2020/10/25 01:40:56;;;;;;;4.35;2.55;;;;;;;5.42;100;94946.23;;;;
2020/10/25 01:41:56;;;;;;;4.35;2.55;;;;;;;5.42;100;94946.23;;;;
2020/10/25 01:42:57;;;;;;;4.35;2.55;;;;;;;5.42;100;94946.23;;;;
2020/10/25 01:43:57;;;;;;;4.35;2.55;;;;;;;5.42;100;94946.23;;;;
2020/10/25 01:44:58;;;;;;;4.35;2.55;;;;;;;5.42;100;94946.23;;;;
2020/10/25 01:45:58;;;;;;;2.8;2.6;;;;;;;5.25;100;94927.67;;;;
2020/10/25 01:46:59;;;;;;;2.8;2.6;;;;;;;5.25;100;94927.67;;;;
2020/10/25 01:48:00;;;;;;;2.8;2.6;;;;;;;5.25;100;94927.67;;;;
2020/10/25 01:49:00;;;;;;;2.8;2.6;;;;;;;5.25;100;94927.67;;;;
2020/10/25 01:50:01;;;;;;;2.8;2.6;;;;;;;5.25;100;94927.67;;;;
2020/10/25 01:51:01;;;;;;;2.8;2.6;;;;;;;5.25;100;94927.67;;;;
2020/10/25 01:52:02;;;;;;;2.8;2.6;;;;;;;5.25;100;94927.67;;;;
2020/10/25 01:53:03;;;;;;;2.8;2.6;;;;;;;5.25;100;94927.67;;;;
2020/10/25 01:54:04;;;;;;;2.8;2.6;;;;;;;5.25;100;94927.67;;;;
2020/10/25 01:55:05;;;;;;;2.8;2.6;;;;;;;5.25;100;94927.67;;;;
2020/10/25 01:56:05;;;;;;;3.3;2.4;;;;;;;5.14;100;94921.64;;;;
2020/10/25 01:57:07;;;;;;;3.3;2.4;;;;;;;5.14;100;94921.64;;;;
2020/10/25 01:58:08;;;;;;;3.3;2.4;;;;;;;5.14;100;94921.64;;;;
2020/10/25 01:59:08;;;;;;;3.3;2.4;;;;;;;5.14;100;94921.64;;;;
2020/10/25 02:00:09;;;;;;;3.3;2.4;;;;;;;5.14;100;94921.64;;;;
2020/10/25 02:01:09;;;;;;;3.3;2.4;;;;;;;5.14;100;94921.64;;;;
2020/10/25 02:02:10;;;;;;;3.3;2.4;;;;;;;5.14;100;94921.64;;;;
2020/10/25 02:03:11;;;;;;;3.3;2.4;;;;;;;5.14;100;94921.64;;;;
2020/10/25 02:04:12;;;;;;;3.3;2.4;;;;;;;5.14;100;94921.64;;;;
2020/10/25 02:05:12;;;;;;;3.3;2.4;;;;;;;5.14;100;94921.64;;;;
2020/10/25 02:06:14;;;;;;;3.3;2.4;;;;;;;5.14;100;94921.64;;;;
2020/10/25 02:07:15;;;;;;;2.900001;2.4;;;;;;;4.97;100;94935.16;;;;
2020/10/25 02:08:15;;;;;;;2.900001;2.4;;;;;;;4.97;100;94935.16;;;;
2020/10/25 02:09:16;;;;;;;2.900001;2.4;;;;;;;4.97;100;94935.16;;;;
2020/10/25 02:10:17;;;;;;;2.900001;2.4;;;;;;;4.97;100;94935.16;;;;
2020/10/25 02:11:17;;;;;;;2.900001;2.4;;;;;;;4.97;100;94935.16;;;;
2020/10/25 02:12:18;;;;;;;2.900001;2.4;;;;;;;4.97;100;94935.16;;;;
2020/10/25 02:13:19;;;;;;;2.900001;2.4;;;;;;;4.97;100;94935.16;;;;
2020/10/25 02:14:21;;;;;;;2.900001;2.4;;;;;;;4.97;100;94935.16;;;;
2020/10/25 02:15:22;;;;;;;2.900001;2.4;;;;;;;4.97;100;94935.16;;;;
2020/10/25 02:16:22;;;;;;;2.900001;2.4;;;;;;;4.97;100;94935.16;;;;
2020/10/25 02:17:23;;;;;;;2.7;2.4;;;;;;;4.86;100;94927.69;;;;
2020/10/25 02:18:23;;;;;;;2.7;2.4;;;;;;;4.86;100;94927.69;;;;
2020/10/25 02:19:24;;;;;;;2.7;2.4;;;;;;;4.86;100;94927.69;;;;
2020/10/25 02:20:24;;;;;;;2.7;2.4;;;;;;;4.86;100;94927.69;;;;
2020/10/25 02:21:26;;;;;;;2.7;2.4;;;;;;;4.86;100;94927.69;;;;
2020/10/25 02:22:27;;;;;;;2.7;2.4;;;;;;;4.86;100;94927.69;;;;
2020/10/25 02:23:27;;;;;;;2.7;2.4;;;;;;;4.86;100;94927.69;;;;
2020/10/25 02:24:31;;;;;;;2.7;2.4;;;;;;;4.86;100;94927.69;;;;
2020/10/25 02:25:32;;;;;;;2.7;2.4;;;;;;;4.86;100;94927.69;;;;
2020/10/25 02:26:33;;;;;;;2.7;2.4;;;;;;;4.86;100;94927.69;;;;
2020/10/25 02:27:33;;;;;;;2.7;2.4;;;;;;;4.86;100;94927.69;;;;
2020/10/25 02:28:34;;;;;;;3.75;2.5;;;;;;;4.68;100;94926.59;;;;
2020/10/25 02:29:35;;;;;;;3.75;2.5;;;;;;;4.68;100;94926.59;;;;
2020/10/25 02:30:35;;;;;;;3.75;2.5;;;;;;;4.68;100;94926.59;;;;
2020/10/25 02:31:36;;;;;;;3.75;2.5;;;;;;;4.68;100;94926.59;;;;
2020/10/25 02:32:36;;;;;;;3.75;2.5;;;;;;;4.68;100;94926.59;;;;
2020/10/25 02:33:37;;;;;;;3.75;2.5;;;;;;;4.68;100;94926.59;;;;
2020/10/25 02:34:38;;;;;;;3.75;2.5;;;;;;;4.68;100;94926.59;;;;
2020/10/25 02:35:38;;;;;;;3.75;2.5;;;;;;;4.68;100;94926.59;;;;
2020/10/25 02:36:39;;;;;;;3.75;2.5;;;;;;;4.68;100;94926.59;;;;
2020/10/25 02:37:39;;;;;;;3.75;2.5;;;;;;;4.68;100;94926.59;;;;
2020/10/25 02:38:40;;;;;;;2.75;2.55;;;;;;;4.6;100;94912.63;;;;
2020/10/25 02:39:41;;;;;;;2.75;2.55;;;;;;;4.6;100;94912.63;;;;
2020/10/25 02:40:41;;;;;;;2.75;2.55;;;;;;;4.6;100;94912.63;;;;
2020/10/25 02:41:42;;;;;;;2.75;2.55;;;;;;;4.6;100;94912.63;;;;
2020/10/25 02:42:42;;;;;;;2.75;2.55;;;;;;;4.6;100;94912.63;;;;
2020/10/25 02:43:43;;;;;;;2.75;2.55;;;;;;;4.6;100;94912.63;;;;
2020/10/25 02:44:44;;;;;;;2.75;2.55;;;;;;;4.6;100;94912.63;;;;
2020/10/25 02:45:44;;;;;;;2.75;2.55;;;;;;;4.6;100;94912.63;;;;
2020/10/25 02:46:45;;;;;;;2.75;2.55;;;;;;;4.6;100;94912.63;;;;
2020/10/25 02:47:46;;;;;;;2.75;2.55;;;;;;;4.6;100;94912.63;;;;
2020/10/25 02:48:50;;;;;;;2.75;2.55;;;;;;;4.6;100;94912.63;;;;
2020/10/25 02:49:50;;;;;;;3.45;2.45;;;;;;;4.46;100;94913.69;;;;
2020/10/25 02:50:51;;;;;;;3.45;2.45;;;;;;;4.46;100;94913.69;;;;
2020/10/25 02:51:51;;;;;;;3.45;2.45;;;;;;;4.46;100;94913.69;;;;
2020/10/25 02:52:52;;;;;;;3.45;2.45;;;;;;;4.46;100;94913.69;;;;
2020/10/25 02:53:54;;;;;;;3.45;2.45;;;;;;;4.46;100;94913.69;;;;
2020/10/25 02:54:55;;;;;;;3.45;2.45;;;;;;;4.46;100;94913.69;;;;
2020/10/25 02:55:55;;;;;;;3.45;2.45;;;;;;;4.46;100;94913.69;;;;
2020/10/25 02:56:56;;;;;;;3.45;2.45;;;;;;;4.46;100;94913.69;;;;
2020/10/25 02:57:56;;;;;;;3.45;2.45;;;;;;;4.46;100;94913.69;;;;
2020/10/25 02:58:57;;;;;;;3.45;2.45;;;;;;;4.46;100;94913.69;;;;
2020/10/25 02:59:57;;;;;;;4.65;2.7;;;;;;;4.38;100;94912.14;;;;
2020/10/25 03:00:58;;;;;;;4.65;2.7;;;;;;;4.38;100;94912.14;;;;
2020/10/25 03:01:58;;;;;;;4.65;2.7;;;;;;;4.38;100;94912.14;;;;
2020/10/25 03:02:59;;;;;;;4.65;2.7;;;;;;;4.38;100;94912.14;;;;
2020/10/25 03:03:59;;;;;;;4.65;2.7;;;;;;;4.38;100;94912.14;;;;
2020/10/25 03:05:02;;;;;;;4.65;2.7;;;;;;;4.38;100;94912.14;;;;
2020/10/25 03:06:04;;;;;;;4.65;2.7;;;;;;;4.38;100;94912.14;;;;
2020/10/25 03:07:05;;;;;;;4.65;2.7;;;;;;;4.38;100;94912.14;;;;
2020/10/25 03:08:05;;;;;;;4.65;2.7;;;;;;;4.38;100;94912.14;;;;
2020/10/25 03:09:06;;;;;;;4.65;2.7;;;;;;;4.38;100;94912.14;;;;
2020/10/25 03:10:06;;;;;;;4.65;2.7;;;;;;;4.38;100;94912.14;;;;
2020/10/25 03:11:12;;;;;;;3.400001;2.299999;;;;;;;4.19;100;94907.14;;;;
2020/10/25 03:12:13;;;;;;;3.400001;2.299999;;;;;;;4.19;100;94907.14;;;;
2020/10/25 03:13:13;;;;;;;3.400001;2.299999;;;;;;;4.19;100;94907.14;;;;
2020/10/25 03:14:14;;;;;;;3.400001;2.299999;;;;;;;4.19;100;94907.14;;;;
2020/10/25 03:15:15;;;;;;;3.400001;2.299999;;;;;;;4.19;100;94907.14;;;;
2020/10/25 03:16:16;;;;;;;3.400001;2.299999;;;;;;;4.19;100;94907.14;;;;
2020/10/25 03:17:17;;;;;;;3.400001;2.299999;;;;;;;4.19;100;94907.14;;;;
2020/10/25 03:18:19;;;;;;;3.400001;2.299999;;;;;;;4.19;100;94907.14;;;;
2020/10/25 03:19:19;;;;;;;3.400001;2.299999;;;;;;;4.19;100;94907.14;;;;
2020/10/25 03:20:20;;;;;;;3.400001;2.299999;;;;;;;4.19;100;94907.14;;;;
2020/10/25 03:21:23;;;;;;;5.6;2.299999;;;;;;;4.08;100;94886.38;;;;
2020/10/25 03:22:23;;;;;;;5.6;2.299999;;;;;;;4.08;100;94886.38;;;;
2020/10/25 03:23:24;;;;;;;5.6;2.299999;;;;;;;4.08;100;94886.38;;;;
2020/10/25 03:24:24;;;;;;;5.6;2.299999;;;;;;;4.08;100;94886.38;;;;
2020/10/25 03:25:25;;;;;;;5.6;2.299999;;;;;;;4.08;100;94886.38;;;;
2020/10/25 03:26:26;;;;;;;5.6;2.299999;;;;;;;4.08;100;94886.38;;;;
2020/10/25 03:27:26;;;;;;;5.6;2.299999;;;;;;;4.08;100;94886.38;;;;
2020/10/25 03:28:27;;;;;;;5.6;2.299999;;;;;;;4.08;100;94886.38;;;;
2020/10/25 03:29:27;;;;;;;5.6;2.299999;;;;;;;4.08;100;94886.38;;;;
2020/10/25 03:30:28;;;;;;;5.6;2.299999;;;;;;;4.08;100;94886.38;;;;
2020/10/25 03:31:28;;;;;;;5.6;2.299999;;;;;;;4.08;100;94886.38;;;;
2020/10/25 03:32:29;;;;;;;2.7;2.2;;;;;;;3.89;100;94879.58;;;;
2020/10/25 03:33:29;;;;;;;2.7;2.2;;;;;;;3.89;100;94879.58;;;;
2020/10/25 03:34:30;;;;;;;2.7;2.2;;;;;;;3.89;100;94879.58;;;;
2020/10/25 03:35:34;;;;;;;2.7;2.2;;;;;;;3.89;100;94879.58;;;;
2020/10/25 03:36:35;;;;;;;2.7;2.2;;;;;;;3.89;100;94879.58;;;;
2020/10/25 03:37:35;;;;;;;2.7;2.2;;;;;;;3.89;100;94879.58;;;;
2020/10/25 03:38:36;;;;;;;2.7;2.2;;;;;;;3.89;100;94879.58;;;;
2020/10/25 03:39:37;;;;;;;2.7;2.2;;;;;;;3.89;100;94879.58;;;;
2020/10/25 03:40:37;;;;;;;2.7;2.2;;;;;;;3.89;100;94879.58;;;;
2020/10/25 03:41:38;;;;;;;2.7;2.2;;;;;;;3.89;100;94879.58;;;;
2020/10/25 03:42:38;;;;;;;2.75;2.25;;;;;;;3.78;100;94890.45;;;;
2020/10/25 03:43:39;;;;;;;2.75;2.25;;;;;;;3.78;100;94890.45;;;;
2020/10/25 03:44:39;;;;;;;2.75;2.25;;;;;;;3.78;100;94890.45;;;;
2020/10/25 03:45:40;;;;;;;2.75;2.25;;;;;;;3.78;100;94890.45;;;;
2020/10/25 03:46:40;;;;;;;2.75;2.25;;;;;;;3.78;100;94890.45;;;;
2020/10/25 03:47:41;;;;;;;2.75;2.25;;;;;;;3.78;100;94890.45;;;;
2020/10/25 03:48:42;;;;;;;2.75;2.25;;;;;;;3.78;100;94890.45;;;;
2020/10/25 03:49:42;;;;;;;2.75;2.25;;;;;;;3.78;100;94890.45;;;;
2020/10/25 03:50:44;;;;;;;2.75;2.25;;;;;;;3.78;100;94890.45;;;;
2020/10/25 03:51:45;;;;;;;2.75;2.25;;;;;;;3.78;100;94890.45;;;;
2020/10/25 03:52:46;;;;;;;2.75;2.25;;;;;;;3.78;100;94890.45;;;;
2020/10/25 03:53:47;;;;;;;2.55;2.35;;;;;;;3.62;100;94892.58;;;;
2020/10/25 03:54:48;;;;;;;2.55;2.35;;;;;;;3.62;100;94892.58;;;;
2020/10/25 03:55:48;;;;;;;2.55;2.35;;;;;;;3.62;100;94892.58;;;;
2020/10/25 03:56:49;;;;;;;2.55;2.35;;;;;;;3.62;100;94892.58;;;;
2020/10/25 03:57:50;;;;;;;2.55;2.35;;;;;;;3.62;100;94892.58;;;;
2020/10/25 03:58:51;;;;;;;2.55;2.35;;;;;;;3.62;100;94892.58;;;;
2020/10/25 03:59:52;;;;;;;2.55;2.35;;;;;;;3.62;100;94892.58;;;;
2020/10/25 04:00:52;;;;;;;2.55;2.35;;;;;;;3.62;100;94892.58;;;;
2020/10/25 04:01:53;;;;;;;2.55;2.35;;;;;;;3.62;100;94892.58;;;;
2020/10/25 04:02:53;;;;;;;2.55;2.35;;;;;;;3.62;100;94892.58;;;;
2020/10/25 04:03:54;;;;;;;2.25;2.05;;;;;;;3.52;100;94887.67;;;;
2020/10/25 04:04:55;;;;;;;2.25;2.05;;;;;;;3.52;100;94887.67;;;;
2020/10/25 04:05:55;;;;;;;2.25;2.05;;;;;;;3.52;100;94887.67;;;;
2020/10/25 04:06:56;;;;;;;2.25;2.05;;;;;;;3.52;100;94887.67;;;;
2020/10/25 04:07:56;;;;;;;2.25;2.05;;;;;;;3.52;100;94887.67;;;;
2020/10/25 04:08:57;;;;;;;2.25;2.05;;;;;;;3.52;100;94887.67;;;;
2020/10/25 04:09:57;;;;;;;2.25;2.05;;;;;;;3.52;100;94887.67;;;;
2020/10/25 04:10:58;;;;;;;2.25;2.05;;;;;;;3.52;100;94887.67;;;;
2020/10/25 04:11:58;;;;;;;2.25;2.05;;;;;;;3.52;100;94887.67;;;;
2020/10/25 04:12:59;;;;;;;2.25;2.05;;;;;;;3.52;100;94887.67;;;;
2020/10/25 04:14:00;;;;;;;2.25;2.05;;;;;;;3.52;100;94887.67;;;;
2020/10/25 04:15:00;;;;;;;2.700001;2.2;;;;;;;3.35;100;94877.96;;;;
2020/10/25 04:16:01;;;;;;;2.700001;2.2;;;;;;;3.35;100;94877.96;;;;
2020/10/25 04:17:04;;;;;;;2.700001;2.2;;;;;;;3.35;100;94877.96;;;;
2020/10/25 04:18:05;;;;;;;2.700001;2.2;;;;;;;3.35;100;94877.96;;;;
2020/10/25 04:19:06;;;;;;;2.700001;2.2;;;;;;;3.35;100;94877.96;;;;
2020/10/25 04:20:06;;;;;;;2.700001;2.2;;;;;;;3.35;100;94877.96;;;;
2020/10/25 04:21:11;;;;;;;2.700001;2.2;;;;;;;3.35;100;94877.96;;;;
2020/10/25 04:22:11;;;;;;;2.700001;2.2;;;;;;;3.35;100;94877.96;;;;
2020/10/25 04:23:12;;;;;;;2.700001;2.2;;;;;;;3.35;100;94877.96;;;;
2020/10/25 04:24:17;;;;;;;2.700001;2.2;;;;;;;3.35;100;94877.96;;;;
2020/10/25 04:25:17;;;;;;;2.6;2.3;;;;;;;3.26;100;94876.09;;;;
2020/10/25 04:26:18;;;;;;;2.6;2.3;;;;;;;3.26;100;94876.09;;;;
2020/10/25 04:27:19;;;;;;;2.6;2.3;;;;;;;3.26;100;94876.09;;;;
2020/10/25 04:28:19;;;;;;;2.6;2.3;;;;;;;3.26;100;94876.09;;;;
2020/10/25 04:29:20;;;;;;;2.6;2.3;;;;;;;3.26;100;94876.09;;;;
2020/10/25 04:30:21;;;;;;;2.6;2.3;;;;;;;3.26;100;94876.09;;;;
2020/10/25 04:31:21;;;;;;;2.6;2.3;;;;;;;3.26;100;94876.09;;;;
2020/10/25 04:32:22;;;;;;;2.6;2.3;;;;;;;3.26;100;94876.09;;;;
2020/10/25 04:33:22;;;;;;;2.6;2.3;;;;;;;3.26;100;94876.09;;;;
2020/10/25 04:34:23;;;;;;;2.6;2.3;;;;;;;3.26;100;94876.09;;;;
2020/10/25 04:35:23;;;;;;;2.6;2.3;;;;;;;3.26;100;94876.09;;;;
2020/10/25 04:36:25;;;;;;;3;2.5;;;;;;;3.11;100;94870;;;;
2020/10/25 04:37:26;;;;;;;3;2.5;;;;;;;3.11;100;94870;;;;
2020/10/25 04:38:26;;;;;;;3;2.5;;;;;;;3.11;100;94870;;;;
2020/10/25 04:39:27;;;;;;;3;2.5;;;;;;;3.11;100;94870;;;;
2020/10/25 04:40:27;;;;;;;3;2.5;;;;;;;3.11;100;94870;;;;
2020/10/25 04:41:28;;;;;;;3;2.5;;;;;;;3.11;100;94870;;;;
2020/10/25 04:42:28;;;;;;;3;2.5;;;;;;;3.11;100;94870;;;;
2020/10/25 04:43:29;;;;;;;3;2.5;;;;;;;3.11;100;94870;;;;
2020/10/25 04:44:30;;;;;;;3;2.5;;;;;;;3.11;100;94870;;;;
2020/10/25 04:45:33;;;;;;;3;2.5;;;;;;;3.11;100;94870;;;;
2020/10/25 04:46:33;;;;;;;2.8;2.5;;;;;;;3.05;100;94869.56;;;;
2020/10/25 04:47:34;;;;;;;2.8;2.5;;;;;;;3.05;100;94869.56;;;;
2020/10/25 04:48:34;;;;;;;2.8;2.5;;;;;;;3.05;100;94869.56;;;;
2020/10/25 04:49:35;;;;;;;2.8;2.5;;;;;;;3.05;100;94869.56;;;;
2020/10/25 04:50:39;;;;;;;2.8;2.5;;;;;;;3.05;100;94869.56;;;;
2020/10/25 04:51:40;;;;;;;2.8;2.5;;;;;;;3.05;100;94869.56;;;;
2020/10/25 04:52:43;;;;;;;2.8;2.5;;;;;;;3.05;100;94869.56;;;;
2020/10/25 04:53:45;;;;;;;2.8;2.5;;;;;;;3.05;100;94869.56;;;;
2020/10/25 04:54:45;;;;;;;2.8;2.5;;;;;;;3.05;100;94869.56;;;;
2020/10/25 04:55:50;;;;;;;2.8;2.5;;;;;;;3.05;100;94869.56;;;;
2020/10/25 04:56:51;;;;;;;2.8;2.5;;;;;;;3.05;100;94869.56;;;;
2020/10/25 04:57:57;;;;;;;3.9;2.55;;;;;;;2.94;100;94868.3;;;;
2020/10/25 04:59:00;;;;;;;3.9;2.55;;;;;;;2.94;100;94868.3;;;;
2020/10/25 05:00:01;;;;;;;3.9;2.55;;;;;;;2.94;100;94868.3;;;;
2020/10/25 05:01:12;;;;;;;3.9;2.55;;;;;;;2.94;100;94868.3;;;;
2020/10/25 05:02:16;;;;;;;3.9;2.55;;;;;;;2.94;100;94868.3;;;;
2020/10/25 05:03:17;;;;;;;3.9;2.55;;;;;;;2.94;100;94868.3;;;;
2020/10/25 05:04:31;;;;;;;3.9;2.55;;;;;;;2.94;100;94868.3;;;;
2020/10/25 05:05:32;;;;;;;3.9;2.55;;;;;;;2.94;100;94868.3;;;;
2020/10/25 05:06:34;;;;;;;3.9;2.55;;;;;;;2.94;100;94868.3;;;;
2020/10/25 05:07:53;;;;;;;2.75;2.2;;;;;;;2.9;100;94847.47;;;;
2020/10/25 05:08:54;;;;;;;2.75;2.2;;;;;;;2.9;100;94847.47;;;;
2020/10/25 05:09:58;;;;;;;2.75;2.2;;;;;;;2.9;100;94847.47;;;;
2020/10/25 05:10:59;;;;;;;2.75;2.2;;;;;;;2.9;100;94847.47;;;;
2020/10/25 05:12:06;;;;;;;2.75;2.2;;;;;;;2.9;100;94847.47;;;;
2020/10/25 05:13:07;;;;;;;2.75;2.2;;;;;;;2.9;100;94847.47;;;;
2020/10/25 05:14:23;;;;;;;2.75;2.2;;;;;;;2.9;100;94847.47;;;;
2020/10/25 05:15:24;;;;;;;2.75;2.2;;;;;;;2.9;100;94847.47;;;;
2020/10/25 05:16:29;;;;;;;2.75;2.2;;;;;;;2.9;100;94847.47;;;;
2020/10/25 05:17:30;;;;;;;2.75;2.2;;;;;;;2.9;100;94847.47;;;;
2020/10/25 05:18:30;;;;;;;2.35;2.15;;;;;;;2.8;100;94841.79;;;;
2020/10/25 05:19:31;;;;;;;2.35;2.15;;;;;;;2.8;100;94841.79;;;;
2020/10/25 05:20:43;;;;;;;2.35;2.15;;;;;;;2.8;100;94841.79;;;;
2020/10/25 05:21:43;;;;;;;2.35;2.15;;;;;;;2.8;100;94841.79;;;;
2020/10/25 05:22:44;;;;;;;2.35;2.15;;;;;;;2.8;100;94841.79;;;;
2020/10/25 05:23:47;;;;;;;2.35;2.15;;;;;;;2.8;100;94841.79;;;;
2020/10/25 05:24:58;;;;;;;2.35;2.15;;;;;;;2.8;100;94841.79;;;;
2020/10/25 05:26:00;;;;;;;2.35;2.15;;;;;;;2.8;100;94841.79;;;;
2020/10/25 05:27:03;;;;;;;2.35;2.15;;;;;;;2.8;100;94841.79;;;;
2020/10/25 05:28:04;;;;;;;2.35;2.15;;;;;;;2.8;100;94841.79;;;;
2020/10/25 05:29:09;;;;;;;3.900001;2.65;;;;;;;2.75;100;94815.33;;;;
2020/10/25 05:30:14;;;;;;;3.900001;2.65;;;;;;;2.75;100;94815.33;;;;
2020/10/25 05:31:14;;;;;;;3.900001;2.65;;;;;;;2.75;100;94815.33;;;;
2020/10/25 05:32:20;;;;;;;3.900001;2.65;;;;;;;2.75;100;94815.33;;;;
2020/10/25 05:33:22;;;;;;;3.900001;2.65;;;;;;;2.75;100;94815.33;;;;
2020/10/25 05:34:24;;;;;;;3.900001;2.65;;;;;;;2.75;100;94815.33;;;;
2020/10/25 05:35:28;;;;;;;3.900001;2.65;;;;;;;2.75;100;94815.33;;;;
2020/10/25 05:36:29;;;;;;;3.900001;2.65;;;;;;;2.75;100;94815.33;;;;
2020/10/25 05:37:29;;;;;;;3.900001;2.65;;;;;;;2.75;100;94815.33;;;;
2020/10/25 05:38:38;;;;;;;3.900001;2.65;;;;;;;2.75;100;94815.33;;;;
2020/10/25 05:39:41;;;;;;;3.900001;2.65;;;;;;;2.75;100;94815.33;;;;
2020/10/25 05:40:46;;;;;;;3.9;2.5;;;;;;;2.66;100;94819.08;;;;
2020/10/25 05:41:48;;;;;;;3.9;2.5;;;;;;;2.66;100;94819.08;;;;
2020/10/25 05:42:52;;;;;;;3.9;2.5;;;;;;;2.66;100;94819.08;;;;
2020/10/25 05:43:59;;;;;;;3.9;2.5;;;;;;;2.66;100;94819.08;;;;
2020/10/25 05:45:00;;;;;;;3.9;2.5;;;;;;;2.66;100;94819.08;;;;
2020/10/25 05:46:00;;;;;;;3.9;2.5;;;;;;;2.66;100;94819.08;;;;
2020/10/25 05:47:03;;;;;;;3.9;2.5;;;;;;;2.66;100;94819.08;;;;
2020/10/25 05:48:03;;;;;;;3.9;2.5;;;;;;;2.66;100;94819.08;;;;
2020/10/25 05:49:26;;;;;;;3.9;2.5;;;;;;;2.66;100;94819.08;;;;
2020/10/25 05:50:37;;;;;;;2.299999;2.1;;;;;;;2.68;100;94824.2;;;;
2020/10/25 05:51:39;;;;;;;2.299999;2.1;;;;;;;2.68;100;94824.2;;;;
2020/10/25 05:52:40;;;;;;;2.299999;2.1;;;;;;;2.68;100;94824.2;;;;
2020/10/25 05:53:40;;;;;;;2.299999;2.1;;;;;;;2.68;100;94824.2;;;;
2020/10/25 05:54:42;;;;;;;2.299999;2.1;;;;;;;2.68;100;94824.2;;;;
2020/10/25 05:55:44;;;;;;;2.299999;2.1;;;;;;;2.68;100;94824.2;;;;
2020/10/25 05:56:45;;;;;;;2.299999;2.1;;;;;;;2.68;100;94824.2;;;;
2020/10/25 05:57:48;;;;;;;2.299999;2.1;;;;;;;2.68;100;94824.2;;;;
2020/10/25 05:58:48;;;;;;;2.299999;2.1;;;;;;;2.68;100;94824.2;;;;
2020/10/25 05:59:49;;;;;;;2.299999;2.1;;;;;;;2.68;100;94824.2;;;;
2020/10/25 06:00:49;;;;;;;2.299999;2.1;;;;;;;2.68;100;94824.2;;;;
2020/10/25 06:01:53;;;;;;;2.4;2.2;;;;;;;2.66;100;94835.18;;;;
2020/10/25 06:02:53;;;;;;;2.4;2.2;;;;;;;2.66;100;94835.18;;;;
2020/10/25 06:03:54;;;;;;;2.4;2.2;;;;;;;2.66;100;94835.18;;;;
2020/10/25 06:04:55;;;;;;;2.4;2.2;;;;;;;2.66;100;94835.18;;;;
2020/10/25 06:06:01;;;;;;;2.4;2.2;;;;;;;2.66;100;94835.18;;;;
2020/10/25 06:07:05;;;;;;;2.4;2.2;;;;;;;2.66;100;94835.18;;;;
2020/10/25 06:08:15;;;;;;;2.4;2.2;;;;;;;2.66;100;94835.18;;;;
2020/10/25 06:09:23;;;;;;;2.4;2.2;;;;;;;2.66;100;94835.18;;;;
2020/10/25 06:10:25;;;;;;;2.4;2.2;;;;;;;2.66;100;94835.18;;;;
2020/10/25 06:11:32;;;;;;;2.4;2.2;;;;;;;2.66;100;94835.18;;;;
2020/10/25 06:12:47;;;;;;;2.9;2.6;;;;;;;2.78;100;94819.84;;;;
2020/10/25 06:14:00;;;;;;;2.9;2.6;;;;;;;2.78;100;94819.84;;;;
2020/10/25 06:15:18;;;;;;;2.9;2.6;;;;;;;2.78;100;94819.84;;;;
2020/10/25 06:16:22;;;;;;;2.9;2.6;;;;;;;2.78;100;94819.84;;;;
2020/10/25 06:17:29;;;;;;;2.9;2.6;;;;;;;2.78;100;94819.84;;;;
2020/10/25 06:18:37;;;;;;;2.9;2.6;;;;;;;2.78;100;94819.84;;;;
2020/10/25 06:19:42;;;;;;;2.9;2.6;;;;;;;2.78;100;94819.84;;;;
2020/10/25 06:20:47;;;;;;;2.9;2.6;;;;;;;2.78;100;94819.84;;;;
2020/10/25 06:21:48;;;;;;;2.9;2.6;;;;;;;2.78;100;94819.84;;;;
2020/10/25 06:22:49;;;;;;;3.4;3.1;;;;;;;2.93;100;94800.51;;;;
2020/10/25 06:23:53;;;;;;;3.4;3.1;;;;;;;2.93;100;94800.51;;;;